createdAt,value
2023-03-10T00:00:27.217Z,31.47
2023-03-10T00:05:28.640Z,31.46
2023-03-10T00:10:30.060Z,31.49
2023-03-10T00:15:31.784Z,31.35
2023-03-10T00:20:33.203Z,31.19
2023-03-10T00:25:34.600Z,31.19
2023-03-10T00:30:35.981Z,30.93
2023-03-10T00:35:37.373Z,31.16
2023-03-10T00:40:38.792Z,30.96
2023-03-10T00:45:40.174Z,30.65
2023-03-10T00:50:41.550Z,30.67
2023-03-10T00:55:42.960Z,30.72
2023-03-10T01:00:44.359Z,30.63
2023-03-10T01:05:45.755Z,30.64
2023-03-10T01:10:47.163Z,30.43
2023-03-10T01:15:48.807Z,30.29
2023-03-10T01:20:50.256Z,30.20
2023-03-10T01:25:52.022Z,30.27
2023-03-10T01:30:53.436Z,30.24
2023-03-10T01:35:54.922Z,29.92
2023-03-10T01:40:56.343Z,30.02
2023-03-10T01:45:57.600Z,29.96
2023-03-10T01:50:58.991Z,29.99
2023-03-10T01:56:02.075Z,30.10
2023-03-10T02:01:03.877Z,30.16
2023-03-10T02:06:08.537Z,29.89
2023-03-10T02:11:09.950Z,29.67
2023-03-10T02:16:11.440Z,29.80
2023-03-10T02:21:44.476Z,29.89
2023-03-10T02:27:04.651Z,29.75
2023-03-10T02:32:06.205Z,29.58
2023-03-10T02:37:07.585Z,29.62
2023-03-10T02:42:09.877Z,29.57
2023-03-10T02:47:11.403Z,29.91
2023-03-10T02:52:34.905Z,30.16
2023-03-10T02:57:36.305Z,30.24
2023-03-10T03:02:37.836Z,30.49
2023-03-10T03:07:39.269Z,30.83
2023-03-10T03:12:40.650Z,30.82
2023-03-10T03:17:42.017Z,30.98
2023-03-10T03:22:44.642Z,31.06
2023-03-10T03:27:46.384Z,31.08
2023-03-10T03:32:47.825Z,31.25
2023-03-10T03:37:49.212Z,31.05
2023-03-10T03:42:51.268Z,30.99
2023-03-10T03:47:52.660Z,31.29
2023-03-10T03:52:54.032Z,31.07
2023-03-10T03:57:55.482Z,31.23
2023-03-10T04:02:56.881Z,30.91
2023-03-10T04:07:58.320Z,30.91
2023-03-10T04:12:59.707Z,30.94
2023-03-10T04:18:01.111Z,30.97
2023-03-10T04:23:02.635Z,30.84
2023-03-10T04:28:04.031Z,30.70
2023-03-10T04:33:05.424Z,30.75
2023-03-10T04:38:06.812Z,30.76
2023-03-10T04:43:08.211Z,30.58
2023-03-10T04:48:09.601Z,30.57
2023-03-10T04:53:11.115Z,30.51
2023-03-10T04:58:12.540Z,30.44
2023-03-10T05:03:13.929Z,30.64
2023-03-10T05:08:15.308Z,30.70
2023-03-10T05:13:16.719Z,30.49
2023-03-10T05:18:18.099Z,30.54
2023-03-10T05:23:19.480Z,30.46
2023-03-10T05:28:20.943Z,30.53
2023-03-10T05:33:22.320Z,30.49
2023-03-10T05:38:23.687Z,30.39
2023-03-10T05:43:25.065Z,30.53
2023-03-10T05:48:26.548Z,30.46
2023-03-10T05:53:28.102Z,30.53
2023-03-10T05:58:29.507Z,30.35
2023-03-10T06:03:31.093Z,30.44
2023-03-10T06:08:32.537Z,30.42
2023-03-10T06:13:34.013Z,30.14
2023-03-10T06:18:35.397Z,30.27
2023-03-10T06:23:36.798Z,30.20
2023-03-10T06:28:38.923Z,30.33
2023-03-10T06:33:40.315Z,30.52
2023-03-10T06:38:41.718Z,30.53
2023-03-10T06:43:43.208Z,30.70
2023-03-10T06:48:44.584Z,31.69
2023-03-10T06:53:46.185Z,33.20
2023-03-10T06:58:48.184Z,33.69
2023-03-10T07:03:49.616Z,33.72
2023-03-10T07:08:51.275Z,33.51
2023-03-10T07:13:52.815Z,33.34
2023-03-10T07:18:54.192Z,33.23
2023-03-10T07:23:55.574Z,32.99
2023-03-10T07:28:57.203Z,33.14
2023-03-10T07:33:58.587Z,32.37
2023-03-10T07:39:00.009Z,32.23
2023-03-10T07:44:01.417Z,32.12
2023-03-10T07:49:04.827Z,31.95
2023-03-10T07:54:06.244Z,32.04
2023-03-10T07:59:07.650Z,31.86
2023-03-10T08:04:09.153Z,31.78
2023-03-10T08:09:10.600Z,31.77
2023-03-10T08:14:12.007Z,31.70
2023-03-10T08:19:13.399Z,31.73
2023-03-10T08:24:14.786Z,31.68
2023-03-10T08:29:16.203Z,31.55
2023-03-10T08:34:17.589Z,31.42
2023-03-10T08:39:18.962Z,31.38
2023-03-10T08:44:20.414Z,31.56
2023-03-10T08:49:22.249Z,31.67
2023-03-10T08:54:23.752Z,32.16
2023-03-10T08:59:25.150Z,31.86
2023-03-10T09:04:26.559Z,31.84
2023-03-10T09:09:27.949Z,31.66
2023-03-10T09:14:29.377Z,31.46
2023-03-10T09:19:30.763Z,31.32
2023-03-10T09:24:32.177Z,31.54
2023-03-10T09:29:43.139Z,31.38
2023-03-10T09:34:45.418Z,31.27
2023-03-10T09:39:47.049Z,31.26
2023-03-10T09:45:19.710Z,31.01
2023-03-10T09:50:29.395Z,31.36
2023-03-10T09:55:47.544Z,31.33
2023-03-10T10:00:49.754Z,31.65
2023-03-10T10:05:52.519Z,31.35
2023-03-10T10:10:58.277Z,31.25
2023-03-10T10:16:24.699Z,31.33
2023-03-10T10:21:46.227Z,31.48
2023-03-10T10:26:47.663Z,31.02
2023-03-10T10:32:03.740Z,30.79
2023-03-10T10:37:24.114Z,30.52
2023-03-10T10:42:29.202Z,30.24
2023-03-10T10:47:51.037Z,30.05
2023-03-10T10:53:12.802Z,29.83
2023-03-10T10:58:25.446Z,29.70
2023-03-10T11:03:36.678Z,29.65
2023-03-10T11:08:40.531Z,29.74
2023-03-10T11:13:55.777Z,29.71
2023-03-10T11:19:10.964Z,29.68
2023-03-10T11:24:18.288Z,29.64
2023-03-10T11:29:49.052Z,29.59
2023-03-10T11:34:51.695Z,29.42
2023-03-10T11:40:28.311Z,30.03
2023-03-10T11:45:39.407Z,29.91
2023-03-10T11:51:04.138Z,29.99
2023-03-10T11:56:06.967Z,29.96
2023-03-10T12:01:08.714Z,29.83
2023-03-10T12:06:13.159Z,30.00
2023-03-10T12:11:17.321Z,29.81
2023-03-10T12:16:20.774Z,29.82
2023-03-10T12:21:26.042Z,29.56
2023-03-10T12:26:39.489Z,29.24
2023-03-10T12:31:41.118Z,29.25
2023-03-10T12:36:46.452Z,29.11
2023-03-10T12:41:48.797Z,28.95
2023-03-10T12:47:15.710Z,28.97
2023-03-10T12:52:44.817Z,28.86
2023-03-10T12:58:00.046Z,28.82
2023-03-10T13:03:24.941Z,28.72
2023-03-10T13:08:51.292Z,28.58
2023-03-10T13:14:01.851Z,28.70
2023-03-10T13:19:03.731Z,29.48
2023-03-10T13:24:26.728Z,29.24
2023-03-10T13:29:28.097Z,29.18
2023-03-10T13:34:30.861Z,29.53
2023-03-10T13:39:32.228Z,29.34
2023-03-10T13:44:38.655Z,29.46
2023-03-10T13:49:47.160Z,29.19
2023-03-10T13:54:49.271Z,29.20
2023-03-10T13:59:51.176Z,29.41
2023-03-10T14:04:52.930Z,29.60
2023-03-10T14:10:03.305Z,29.40
2023-03-10T14:15:16.861Z,29.50
2023-03-10T14:20:29.130Z,29.96
2023-03-10T14:25:30.537Z,29.77
2023-03-10T14:30:33.175Z,29.69
2023-03-10T14:35:34.595Z,30.07
2023-03-10T14:40:40.053Z,30.42
2023-03-10T14:45:41.787Z,30.68
2023-03-10T14:50:43.235Z,30.92
2023-03-10T14:55:45.228Z,30.98
2023-03-10T15:00:46.604Z,31.11
2023-03-10T15:05:49.395Z,31.29
2023-03-10T15:10:51.051Z,31.65
2023-03-10T15:15:53.082Z,31.49
2023-03-10T15:20:58.780Z,31.79
2023-03-10T15:26:02.759Z,31.76
2023-03-10T15:31:04.459Z,31.93
2023-03-10T15:36:06.605Z,31.85
2023-03-10T15:41:08.384Z,32.01
2023-03-10T15:46:09.805Z,32.08
2023-03-10T15:51:12.864Z,32.17
2023-03-10T15:56:15.299Z,32.33
2023-03-10T16:01:18.542Z,32.14
2023-03-10T16:06:24.218Z,31.77
2023-03-10T16:11:25.475Z,31.34
2023-03-10T16:16:26.955Z,31.40
2023-03-10T16:21:28.358Z,31.40
2023-03-10T16:26:29.800Z,31.29
2023-03-10T16:31:31.291Z,31.13
2023-03-10T16:36:33.235Z,30.79
2023-03-10T16:41:34.612Z,30.44
2023-03-10T16:46:36.065Z,30.30
2023-03-10T16:51:42.132Z,30.30
2023-03-10T16:56:47.738Z,30.23
2023-03-10T17:01:49.769Z,30.27
2023-03-10T17:06:51.139Z,30.05
2023-03-10T17:11:55.157Z,29.77
2023-03-10T17:16:57.081Z,29.66
2023-03-10T17:21:58.557Z,29.72
2023-03-10T17:27:00.040Z,29.63
2023-03-10T17:32:01.549Z,29.73
2023-03-10T17:37:02.980Z,29.58
2023-03-10T17:42:04.493Z,29.57
2023-03-10T17:47:05.884Z,29.40
2023-03-10T17:52:07.259Z,29.50
2023-03-10T17:57:08.854Z,29.62
2023-03-10T18:02:11.627Z,29.70
2023-03-10T18:07:13.269Z,29.46
2023-03-10T18:12:14.656Z,29.60
2023-03-10T18:17:16.088Z,29.59
2023-03-10T18:22:17.475Z,29.62
2023-03-10T18:27:18.858Z,29.73
2023-03-10T18:32:20.265Z,29.92
2023-03-10T18:37:21.641Z,29.55
2023-03-10T18:42:23.129Z,29.73
2023-03-10T18:47:24.592Z,29.74
2023-03-10T18:52:26.001Z,30.14
2023-03-10T18:57:27.916Z,30.12
2023-03-10T19:02:29.319Z,29.95
2023-03-10T19:07:32.292Z,29.91
2023-03-10T19:12:34.032Z,29.82
2023-03-10T19:17:36.083Z,29.97
2023-03-10T19:22:38.210Z,30.13
2023-03-10T19:27:40.471Z,29.95
2023-03-10T19:32:42.067Z,29.98
2023-03-10T19:37:43.614Z,29.94
2023-03-10T19:42:45.505Z,30.00
2023-03-10T19:47:47.081Z,30.44
2023-03-10T19:52:49.061Z,30.60
2023-03-10T19:57:51.765Z,30.73
2023-03-10T20:02:53.896Z,30.73
2023-03-10T20:07:55.312Z,30.76
2023-03-10T20:12:56.741Z,31.02
2023-03-10T20:18:00.760Z,31.31
2023-03-10T20:23:02.165Z,31.22
2023-03-10T20:28:03.992Z,31.21
2023-03-10T20:33:05.363Z,31.11
2023-03-10T20:38:06.740Z,30.96
2023-03-10T20:43:09.238Z,31.29
2023-03-10T20:48:10.622Z,31.15
2023-03-10T20:53:11.994Z,30.72
2023-03-10T20:58:13.547Z,30.44
2023-03-10T21:03:14.921Z,30.22
2023-03-10T21:08:16.312Z,30.14
2023-03-10T21:13:17.737Z,30.23
2023-03-10T21:18:19.272Z,30.05
2023-03-10T21:23:20.663Z,29.78
2023-03-10T21:28:22.052Z,29.62
2023-03-10T21:33:23.565Z,29.65
2023-03-10T21:38:24.952Z,29.45
2023-03-10T21:43:27.732Z,29.20
2023-03-10T21:48:29.160Z,29.30
2023-03-10T21:53:30.579Z,28.99
2023-03-10T21:58:32.129Z,29.03
2023-03-10T22:03:33.831Z,28.96
2023-03-10T22:08:36.190Z,28.94
2023-03-10T22:13:37.790Z,28.91
2023-03-10T22:18:39.190Z,28.88
2023-03-10T22:23:40.600Z,28.54
2023-03-10T22:28:42.161Z,28.74
2023-03-10T22:33:43.561Z,28.67
2023-03-10T22:38:44.933Z,28.75
2023-03-10T22:43:46.320Z,28.70
2023-03-10T22:48:47.720Z,28.69
2023-03-10T22:53:49.109Z,28.76
2023-03-10T22:58:50.486Z,28.59
2023-03-10T23:03:51.925Z,28.57
2023-03-10T23:08:53.327Z,28.57
2023-03-10T23:13:54.816Z,28.29
2023-03-10T23:18:56.250Z,28.35
2023-03-10T23:23:57.678Z,28.55
2023-03-10T23:28:59.042Z,28.42
2023-03-10T23:34:00.426Z,28.16
2023-03-10T23:39:01.805Z,28.08
2023-03-10T23:44:03.213Z,27.64
2023-03-10T23:49:04.587Z,27.62
2023-03-10T23:54:05.980Z,26.90
2023-03-10T23:59:07.410Z,26.32
